createdAt,value
2022-08-03T04:24:54.370Z,89.48
2022-08-03T04:25:48.900Z,89.07
2022-08-03T04:26:52.614Z,88.93
2022-08-03T04:28:30.005Z,88.73
2022-08-03T04:28:49.804Z,88.62
2022-08-03T04:29:48.848Z,88.73
2022-08-03T04:30:49.338Z,88.42
2022-08-03T04:31:48.725Z,88.52
2022-08-03T04:32:48.771Z,89.74
2022-08-03T04:33:48.756Z,88.73
2022-08-03T04:34:48.692Z,88.18
2022-08-03T04:36:01.307Z,88.28
2022-08-03T04:36:49.664Z,88.99
2022-08-03T04:37:48.675Z,88.58
2022-08-03T04:38:48.642Z,88.99
2022-08-03T04:39:48.646Z,89.59
2022-08-03T04:40:48.628Z,88.48
2022-08-03T04:42:08.407Z,88.18
2022-08-03T04:42:49.619Z,87.87
2022-08-03T04:43:48.618Z,87.83
2022-08-03T04:44:48.595Z,87.63
2022-08-03T04:45:48.580Z,87.63
2022-08-03T04:46:50.543Z,87.73
2022-08-03T04:47:48.572Z,87.73
2022-08-03T04:48:48.558Z,87.63
2022-08-03T04:49:48.547Z,87.63
2022-08-03T04:50:48.522Z,87.12
2022-08-03T04:51:48.516Z,87.79
2022-08-03T04:52:48.515Z,87.99
2022-08-03T04:53:48.490Z,87.28
2022-08-03T04:54:50.526Z,87.79
2022-08-03T04:55:48.478Z,88.20
2022-08-03T04:56:48.464Z,86.47
2022-08-03T04:57:48.466Z,87.48
2022-08-03T04:58:48.439Z,87.79
2022-08-03T04:59:48.431Z,87.69
2022-08-03T05:00:48.422Z,87.89
2022-08-03T05:01:48.504Z,88.15
2022-08-03T05:06:09.875Z,88.11
2022-08-03T07:00:09.092Z,63.80
2022-08-03T07:00:42.185Z,64.10
2022-08-03T07:01:40.786Z,63.53
2022-08-03T07:02:47.334Z,64.73
2022-08-03T11:55:25.006Z,31.46
2022-08-03T12:02:54.733Z,30.18
2022-08-03T12:05:01.322Z,30.40
2022-08-03T12:06:03.323Z,32.92
2022-08-03T12:22:51.321Z,30.98
2022-08-03T12:23:39.620Z,31.23
2022-08-03T12:24:39.577Z,30.73
2022-08-03T12:25:40.040Z,27.47
2022-08-03T12:26:39.568Z,27.70
2022-08-03T12:27:39.646Z,30.52
2022-08-03T12:28:43.572Z,28.56
2022-08-03T12:30:04.340Z,28.39
2022-08-03T12:31:02.798Z,27.71
2022-08-03T13:05:41.409Z,24.39
2022-08-03T13:06:39.930Z,24.77
2022-08-03T13:23:01.398Z,23.93
2022-08-03T13:23:22.370Z,24.55
2022-08-03T13:24:28.118Z,28.59
2022-08-03T13:25:15.040Z,26.17
2022-08-03T13:39:32.473Z,24.91
2022-08-03T13:39:57.520Z,25.03
2022-08-03T13:40:46.170Z,26.78
2022-08-03T13:56:43.825Z,29.64
2022-08-03T15:35:56.200Z,32.57
2022-08-03T15:36:32.110Z,31.01
2022-08-03T15:37:32.084Z,31.01
2022-08-03T15:38:32.132Z,31.87
2022-08-03T15:39:32.139Z,30.70
2022-08-03T15:40:33.348Z,29.83
2022-08-03T15:41:32.114Z,29.53
2022-08-03T15:42:32.046Z,31.48
2022-08-03T15:43:32.038Z,30.19
2022-08-03T15:44:32.024Z,32.24
2022-08-03T15:45:36.101Z,32.13
2022-08-03T15:46:32.003Z,29.97
2022-08-03T15:47:32.048Z,29.29
2022-08-03T15:48:32.050Z,29.69
2022-08-03T15:49:32.044Z,30.67
2022-08-03T15:50:32.117Z,30.08
2022-08-03T15:51:31.975Z,30.67
2022-08-03T15:52:32.093Z,31.24
2022-08-03T15:53:37.676Z,32.62
2022-08-03T15:54:36.907Z,32.06
2022-08-03T15:56:34.195Z,31.49
2022-08-03T15:59:03.480Z,32.28
2022-08-03T15:59:11.352Z,32.76
2022-08-03T15:59:32.911Z,32.58
2022-08-03T16:00:42.794Z,32.48
2022-08-03T16:01:32.959Z,31.69
2022-08-03T16:02:36.618Z,33.75
2022-08-03T16:03:32.809Z,32.58
2022-08-03T16:04:32.080Z,31.02
2022-08-03T16:05:34.899Z,32.97
2022-08-03T16:06:39.955Z,31.52
2022-08-03T16:07:39.404Z,31.92
2022-08-03T16:08:48.443Z,33.28
2022-08-03T16:09:42.438Z,33.26
2022-08-03T16:10:34.721Z,32.09
2022-08-03T16:11:31.776Z,31.41
2022-08-03T16:12:31.791Z,31.41
2022-08-03T16:14:13.820Z,31.22
2022-08-03T16:14:43.365Z,33.17
2022-08-03T16:15:32.801Z,34.53
2022-08-03T16:16:38.907Z,35.88
2022-08-03T16:17:32.725Z,33.64
2022-08-03T16:18:31.967Z,32.57
2022-08-03T16:19:45.472Z,34.21
2022-08-03T16:20:42.300Z,29.72
2022-08-03T16:21:48.381Z,32.26
2022-08-03T16:22:47.358Z,33.23
2022-08-03T16:23:41.992Z,32.86
2022-08-03T16:24:32.653Z,32.57
2022-08-03T16:28:41.850Z,34.24
2022-08-03T16:30:08.251Z,33.65
2022-08-03T16:36:35.090Z,34.96
2022-08-03T16:37:38.984Z,35.25
2022-08-03T16:38:34.352Z,34.38
2022-08-03T16:39:34.532Z,34.47
2022-08-03T16:40:34.371Z,36.93
2022-08-03T23:46:06.884Z,80.58
2022-08-03T23:46:32.004Z,79.52
2022-08-03T23:47:24.456Z,80.43
2022-08-03T23:48:25.730Z,79.58
